ADDS METAR Data INFO
IDs: Format: Raw Decoded Include TAF

Data at: 1330 UTC 19 Jul 2018

KHJO 191253Z AUTO 00000KT 10SM CLR 20/18 A2988 RMK AO2 SLP117 T02000178
KHJO 191153Z AUTO 32003KT 10SM CLR 21/18 A2987 RMK AO2 SLP113 T02110178 10261 20206 53000
KHJO 191053Z AUTO 06004KT 10SM CLR 23/16 A2986 RMK AO2 SLP111 T02330161
KHJO 190953Z AUTO 35003KT 10SM CLR 23/17 A2986 RMK AO2 SLP111 T02280167
KHJO 190853Z AUTO 33003KT 10SM CLR 24/17 A2987 RMK AO2 SLP112 T02390167 58001
KHJO 190753Z AUTO 28004KT 10SM CLR 24/19 A2987 RMK AO2 SLP112 T02440189 404110194
KHJO 190653Z AUTO 28004KT 10SM CLR 24/19 A2987 RMK AO2 SLP113 T02440194
KHJO 190553Z AUTO 00000KT 10SM CLR 26/21 A2987 RMK AO2 SLP114 T02560206 10389 20250 53009
KHJO 190453Z AUTO 00000KT 10SM CLR 27/21 A2986 RMK AO2 SLP111 T02670211
KHJO 190353Z AUTO 00000KT 10SM CLR 28/21 A2984 RMK AO2 SLP106 T02830211
KHJO 190253Z AUTO 15004KT 9SM CLR 31/20 A2984 RMK AO2 SLP104 T03110200 55003
KHJO 190153Z AUTO 00000KT 10SM CLR 34/17 A2983 RMK AO2 SLP102 T03440167
KHJO 190053Z AUTO 01003KT 10SM CLR 37/13 A2983 RMK AO2 SLP101 T03720133
KHJO 182353Z AUTO 35004KT 10SM CLR 39/07 A2985 RMK AO2 SLP107 T03890067 10411 20339 57018
KHJO 182253Z AUTO 04003KT 10SM CLR 41/10 A2987 RMK AO2 SLP113 T04060100
KHJO 182153Z AUTO 21004KT 10SM CLR 39/09 A2988 RMK AO2 SLP117 T03890089
KHJO 182131Z AUTO 00000KT 10SM FEW001 39/07 A2989 RMK AO2 T03940072
KHJO 182053Z AUTO VRB04KT 10SM CLR 38/08 A2990 RMK AO2 SLP124 T03830078 58012
KHJO 181953Z AUTO 33006KT 10SM CLR 38/09 A2992 RMK AO2 SLP130 T03780094
KHJO 181853Z AUTO VRB04KT 10SM CLR 36/07 A2994 RMK AO2 SLP136 T03610067
KHJO 181753Z AUTO 34007KT 10SM CLR 34/09 A2994 RMK AO2 SLP136 T03390089 10339 20194 50000
KHJO 181653Z AUTO 31006KT 10SM CLR 31/09 A2994 RMK AO2 SLP137 T03110094
KHJO 181553Z AUTO 30003KT 10SM CLR 29/11 A2995 RMK AO2 SLP140 T02890106
KHJO 181453Z AUTO 34003KT 10SM CLR 26/13 A2994 RMK AO2 SLP136 T02610128 53007
KHJO 181353Z AUTO 23004KT 10SM CLR 23/13 A2992 RMK AO2 SLP132 T02280133
KHJO 181253Z AUTO 22003KT 10SM CLR 19/15 A2992 RMK AO2 SLP132 T01940150
KHJO 181153Z AUTO 17004KT 10SM CLR 20/14 A2991 RMK AO2 SLP128 T02000139 10306 20194 53006
KHJO 181053Z AUTO 03004KT 10SM CLR 23/13 A2990 RMK AO2 SLP124 T02330128
KHJO 180953Z AUTO 33007KT 10SM CLR 27/09 A2990 RMK AO2 SLP122 T02670094
KHJO 180853Z AUTO 31007KT 10SM CLR 28/11 A2990 RMK AO2 SLP123 T02780111 50003
KHJO 180753Z AUTO 31009KT 10SM CLR 29/11 A2990 RMK AO2 SLP124 T02890111 404110211
KHJO 180653Z AUTO 32008KT 10SM CLR 29/14 A2990 RMK AO2 SLP123 T02940139
KHJO 180553Z AUTO 32008KT 10SM CLR 31/14 A2989 RMK AO2 SLP120 T03060144 10406 20306 52016
KHJO 180453Z AUTO 31006KT 10SM CLR 32/14 A2987 RMK AO2 SLP115 T03170144
KHJO 180353Z AUTO 32009KT 10SM CLR 34/13 A2986 RMK AO2 SLP108 T03390128
KHJO 180253Z AUTO 33009KT 10SM CLR 37/09 A2984 RMK AO2 SLP103 T03670094 55003
KHJO 180153Z AUTO 32010KT 10SM FEW110 39/10 A2983 RMK AO2 SLP101 T03890100